Time;durP1;ratioP1;P1;durP2;ratioP2;P2;SDS_P1;SDS_P2;PMS_P1;PMS_P2;Temp;Humidity;BMP_temperature;BMP_pressure;BME280_temperature;BME280_humidity;BME280_pressure;Samples;Min_cycle;Max_cycle;Signal;HPM_P1;HPM_P2
2022/11/20 00:01:26;;;;;;;1.83;0.85;;;;;;;15.46;49.32;93092.75;5088342;28;20044;-75
2022/11/20 00:03:53;;;;;;;2.50;0.73;;;;;;;15.40;49.54;93084.22;5086650;28;20047;-74
2022/11/20 00:06:20;;;;;;;1.67;0.88;;;;;;;15.45;50.01;93080.47;5088119;28;20028;-75
2022/11/20 00:08:46;;;;;;;1.58;1.48;;;;;;;15.40;49.84;93116.38;5089158;28;20042;-75
2022/11/20 00:11:17;;;;;;;3.72;0.80;;;;;;;15.56;49.75;93108.22;5087863;28;20104;-75
2022/11/20 00:13:44;;;;;;;0.60;0.60;;;;;;;15.50;49.61;93096.25;5088016;28;20037;-75
2022/11/20 00:16:11;;;;;;;0.90;0.80;;;;;;;15.54;49.74;93101.69;5088264;28;20033;-75
2022/11/20 00:18:37;;;;;;;1.55;0.88;;;;;;;15.62;49.55;93103.31;5085158;28;20020;-75
2022/11/20 00:21:23;;;;;;;1.55;0.70;;;;;;;15.46;49.92;93082.81;5087161;28;20047;-75
2022/11/20 00:23:50;;;;;;;1.17;0.70;;;;;;;15.46;49.91;93090.06;5085895;28;20059;-75
2022/11/20 00:26:17;;;;;;;1.35;0.98;;;;;;;15.39;50.03;93085.38;5086321;28;20032;-75
2022/11/20 00:28:44;;;;;;;2.65;0.93;;;;;;;15.31;49.78;93040.06;5087978;28;20074;-76
2022/11/20 00:31:12;;;;;;;3.60;0.77;;;;;;;15.59;49.63;93088.75;5104317;28;20040;-75
2022/11/20 00:33:38;;;;;;;2.42;0.75;;;;;;;15.50;49.39;93076.75;5076464;28;20024;-76
2022/11/20 00:36:06;;;;;;;3.25;1.20;;;;;;;15.58;49.26;93091.78;5086285;28;20066;-75
2022/11/20 00:38:32;;;;;;;1.60;0.88;;;;;;;15.60;48.94;93065.38;5086903;28;20028;-76
2022/11/20 00:40:59;;;;;;;2.47;0.98;;;;;;;15.62;49.43;93081.88;5083067;28;20044;-75
2022/11/20 00:43:25;;;;;;;1.05;0.70;;;;;;;15.56;49.49;93075.28;5086636;28;20067;-75
2022/11/20 00:45:55;;;;;;;2.08;1.02;;;;;;;15.65;49.14;93111.41;5094474;28;20109;-75
2022/11/20 00:48:20;;;;;;;3.50;0.70;;;;;;;15.42;48.92;93049.81;5084483;28;20979;-76
2022/11/20 00:50:46;;;;;;;1.63;0.85;;;;;;;15.66;49.25;93112.19;5085120;28;20016;-76
2022/11/20 00:53:11;;;;;;;3.08;0.70;;;;;;;15.67;48.51;93103.78;5086213;28;20526;-75
2022/11/20 00:55:36;;;;;;;2.03;0.70;;;;;;;15.61;48.61;93099.09;5083470;28;20449;-74
2022/11/20 00:58:02;;;;;;;1.45;1.33;;;;;;;15.67;48.63;93087.72;5085251;28;20043;-75
2022/11/20 01:00:27;;;;;;;3.40;0.80;;;;;;;15.67;47.83;93071.63;5083622;28;20012;-76
2022/11/20 01:02:55;;;;;;;3.75;0.60;;;;;;;15.72;48.65;93102.72;5083038;28;20028;-76
2022/11/20 01:05:21;;;;;;;2.20;0.75;;;;;;;15.77;48.77;93113.91;5084441;28;20474;-75
2022/11/20 01:07:46;;;;;;;1.45;0.70;;;;;;;15.84;48.71;93124.72;5085519;28;20036;-75
2022/11/20 01:10:11;;;;;;;0.80;0.70;;;;;;;15.87;48.02;93074.97;5085214;28;20047;-74
2022/11/20 01:12:37;;;;;;;3.10;1.00;;;;;;;15.70;48.71;93081.63;5081648;28;20083;-74
2022/11/20 01:15:02;;;;;;;1.27;0.70;;;;;;;15.88;48.16;93089.91;5085951;28;20507;-75
2022/11/20 01:17:27;;;;;;;1.75;0.80;;;;;;;15.61;48.43;93059.66;5085100;28;20032;-74
2022/11/20 01:19:53;;;;;;;1.25;0.70;;;;;;;15.67;48.49;93092.31;5084837;28;20117;-74
2022/11/20 01:22:18;;;;;;;2.28;0.68;;;;;;;15.59;48.28;93042.41;5085600;28;20059;-74
2022/11/20 01:24:44;;;;;;;0.90;0.65;;;;;;;15.70;48.19;93070.13;5081570;28;20570;-74
2022/11/20 01:27:09;;;;;;;1.58;1.10;;;;;;;15.73;48.38;93064.06;5085059;28;20056;-74
2022/11/20 01:29:34;;;;;;;12.07;5.10;;;;;;;15.57;47.84;93029.38;5083092;28;20040;-75
2022/11/20 01:32:00;;;;;;;2.33;0.80;;;;;;;15.66;47.95;93047.88;5080330;28;20499;-74
2022/11/20 01:34:25;;;;;;;1.55;0.60;;;;;;;15.52;48.55;93023.56;5082269;28;20093;-75
2022/11/20 01:36:52;;;;;;;1.90;0.77;;;;;;;15.41;48.29;93010.75;5082179;28;20044;-74
2022/11/20 01:39:24;;;;;;;0.50;0.50;;;;;;;15.60;49.09;93043.94;5099435;28;20020;-74
2022/11/20 01:44:48;;;;;;;1.38;0.70;;;;;;;15.61;48.09;93011.44;5080312;28;20035;-74
2022/11/20 01:47:17;;;;;;;4.43;0.80;;;;;;;15.54;48.65;92991.81;5081395;28;20041;-74
2022/11/20 01:49:50;;;;;;;4.95;0.70;;;;;;;15.59;48.21;93053.16;5099411;28;20264;-75
2022/11/20 01:52:30;;;;;;;2.70;0.68;;;;;;;15.61;48.20;92981.16;5082737;28;20048;-74
2022/11/20 01:55:18;;;;;;;0.73;0.60;;;;;;;15.50;48.05;93009.75;5083265;28;20036;-75
2022/11/20 01:57:47;;;;;;;3.00;0.63;;;;;;;15.61;48.19;93040.13;5080488;28;20500;-74
2022/11/20 02:00:16;;;;;;;1.35;0.65;;;;;;;15.70;47.78;93049.44;5094677;28;20219;-74
2022/11/20 02:02:47;;;;;;;0.65;0.65;;;;;;;15.77;46.94;93043.41;5079951;28;20109;-75
2022/11/20 02:05:24;;;;;;;2.47;0.60;;;;;;;15.80;47.69;93050.72;5079131;28;20036;-74
2022/11/20 02:07:50;;;;;;;1.02;0.93;;;;;;;15.57;47.35;93045.44;5079561;28;20483;-75
2022/11/20 02:10:16;;;;;;;1.67;0.85;;;;;;;15.50;47.16;93028.53;5078649;28;20028;-74
2022/11/20 02:15:25;;;;;;;1.42;0.50;;;;;;;15.59;47.20;93075.34;5079714;28;20092;-75
2022/11/20 02:17:51;;;;;;;1.00;0.57;;;;;;;15.72;47.40;93068.63;5078611;28;20092;-74
2022/11/20 02:20:16;;;;;;;1.02;0.50;;;;;;;15.60;47.26;93054.66;5079251;28;20037;-75
2022/11/20 02:22:53;;;;;;;1.83;0.57;;;;;;;15.65;47.07;93046.31;5079199;28;20050;-74
2022/11/20 02:25:19;;;;;;;0.88;0.55;;;;;;;15.80;46.84;93050.72;5080516;28;20450;-74
2022/11/20 02:27:45;;;;;;;2.50;0.50;;;;;;;15.98;46.41;93051.75;5077191;28;20878;-75
2022/11/20 02:30:11;;;;;;;1.02;0.60;;;;;;;15.95;46.63;93068.53;5079415;28;20024;-74
2022/11/20 02:32:38;;;;;;;2.85;0.60;;;;;;;15.94;46.68;93066.25;5079535;28;20028;-74
2022/11/20 02:35:29;;;;;;;2.33;0.98;;;;;;;16.09;46.46;93078.66;5083701;28;20056;-74
2022/11/20 02:37:56;;;;;;;0.70;0.70;;;;;;;15.90;47.16;93069.63;5078325;28;20066;-74
2022/11/20 02:40:22;;;;;;;0.68;0.50;;;;;;;15.63;47.82;93064.69;5080568;28;20036;-74
2022/11/20 02:42:48;;;;;;;0.52;0.50;;;;;;;15.66;47.70;93047.88;5076311;28;20145;-74
2022/11/20 02:45:14;;;;;;;5.85;2.28;;;;;;;15.82;47.73;93088.69;5078888;28;20051;-75
2022/11/20 02:47:39;;;;;;;4.10;0.95;;;;;;;15.80;47.87;93080.22;5076947;28;20039;-74
2022/11/20 02:50:05;;;;;;;0.80;0.55;;;;;;;15.63;47.98;93062.00;5078756;28;20575;-75
2022/11/20 02:52:31;;;;;;;1.83;0.88;;;;;;;15.85;47.97;93096.00;5077616;28;20043;-74
2022/11/20 02:54:56;;;;;;;1.73;0.60;;;;;;;15.75;47.86;93077.84;5079629;28;20068;-74
2022/11/20 02:57:22;;;;;;;1.92;0.95;;;;;;;15.57;48.96;93088.34;5079287;28;20028;-74
2022/11/20 02:59:47;;;;;;;1.80;0.80;;;;;;;15.60;49.03;93102.91;5075441;28;20020;-74
2022/11/20 03:02:12;;;;;;;1.48;0.90;;;;;;;15.68;49.06;93107.25;5076398;28;20037;-74
2022/11/20 03:04:38;;;;;;;2.30;1.08;;;;;;;15.51;49.41;93110.44;5082796;28;20461;-74
2022/11/20 03:07:04;;;;;;;1.83;0.98;;;;;;;15.66;49.32;93106.81;5083690;28;20028;-74
2022/11/20 03:09:29;;;;;;;1.73;1.10;;;;;;;15.66;49.57;93101.47;5084983;28;20025;-75
2022/11/20 03:11:55;;;;;;;1.63;1.00;;;;;;;15.46;49.67;93098.88;5083724;28;20036;-74
2022/11/20 03:14:20;;;;;;;1.10;1.00;;;;;;;15.31;50.19;93097.09;5087023;28;20029;-74
2022/11/20 03:16:46;;;;;;;4.30;1.08;;;;;;;15.19;50.27;93073.19;5086345;28;20082;-75
2022/11/20 03:19:12;;;;;;;3.90;1.02;;;;;;;15.38;50.52;93101.81;5085438;28;20313;-74
2022/11/20 03:21:37;;;;;;;2.20;1.08;;;;;;;15.30;50.55;93127.69;5084147;28;20032;-74
2022/11/20 03:24:03;;;;;;;3.10;1.63;;;;;;;15.20;50.96;93090.81;5084212;28;20117;-74
2022/11/20 03:26:29;;;;;;;3.85;1.00;;;;;;;15.40;50.47;93094.94;5084283;28;20032;-74
2022/11/20 03:29:00;;;;;;;1.95;1.00;;;;;;;15.31;50.42;93115.06;5082852;28;20865;-74
2022/11/20 03:31:28;;;;;;;3.42;1.67;;;;;;;15.40;50.63;93129.75;5090976;28;20063;-76
2022/11/20 03:33:54;;;;;;;3.15;1.00;;;;;;;15.44;50.41;93121.84;5084746;28;20711;-74
2022/11/20 03:36:20;;;;;;;3.17;0.95;;;;;;;15.44;50.07;93125.28;5086255;28;20672;-74
2022/11/20 03:38:47;;;;;;;1.85;1.15;;;;;;;15.46;50.08;93114.97;5084163;28;20023;-75
2022/11/20 03:41:15;;;;;;;0.80;0.73;;;;;;;15.27;50.03;93090.91;5087971;28;20502;-74
2022/11/20 03:43:41;;;;;;;2.47;0.80;;;;;;;15.20;50.12;93090.03;5083212;28;20212;-75
2022/11/20 03:46:07;;;;;;;1.75;0.80;;;;;;;15.39;50.02;93144.31;5081355;28;20036;-75
2022/11/20 03:48:33;;;;;;;2.45;1.10;;;;;;;15.38;50.45;93145.44;5084523;28;20016;-75
2022/11/20 03:51:22;;;;;;;0.90;0.80;;;;;;;15.41;50.00;93112.56;5086461;28;20096;-74
2022/11/20 03:53:49;;;;;;;0.80;0.77;;;;;;;15.35;49.95;93148.81;5084397;28;20616;-75
2022/11/20 03:56:17;;;;;;;1.20;0.75;;;;;;;15.44;50.22;93154.00;5085102;28;20047;-75
2022/11/20 03:58:43;;;;;;;3.58;0.70;;;;;;;15.29;49.88;93114.69;5086706;28;20337;-75
2022/11/20 04:01:12;;;;;;;1.80;0.80;;;;;;;15.51;49.80;93124.59;5085338;28;20043;-76
2022/11/20 04:03:39;;;;;;;7.97;2.38;;;;;;;15.42;49.22;93095.38;5085192;28;20028;-75
2022/11/20 04:06:09;;;;;;;3.17;0.82;;;;;;;15.65;49.42;93143.56;5084315;28;20127;-74
2022/11/20 04:08:35;;;;;;;0.98;0.82;;;;;;;15.63;48.73;93134.38;5082938;28;20048;-74
2022/11/20 04:11:24;;;;;;;2.72;1.70;;;;;;;15.65;49.23;93140.13;5087532;28;20037;-75
2022/11/20 04:13:54;;;;;;;4.13;1.05;;;;;;;15.56;49.10;93120.84;5085836;28;20039;-75
2022/11/20 04:16:22;;;;;;;1.67;0.98;;;;;;;15.74;48.55;93130.69;5082844;28;20360;-76
2022/11/20 04:18:50;;;;;;;2.15;0.73;;;;;;;15.93;48.50;93137.88;5085563;28;20036;-74
2022/11/20 04:21:16;;;;;;;0.90;0.70;;;;;;;15.95;48.49;93134.81;5084297;28;20052;-74
2022/11/20 04:23:41;;;;;;;1.33;0.80;;;;;;;15.81;49.12;93152.25;5086613;28;20032;-75
2022/11/20 04:26:09;;;;;;;1.25;0.60;;;;;;;15.70;48.64;93153.22;5083832;28;20036;-75
2022/11/20 04:28:35;;;;;;;2.08;0.55;;;;;;;15.69;49.46;93170.47;5085565;28;20063;-74
2022/11/20 04:31:06;;;;;;;1.15;0.52;;;;;;;15.39;49.51;93141.63;5083943;28;20044;-75
2022/11/20 04:33:31;;;;;;;1.23;0.77;;;;;;;15.41;49.86;93160.00;5084229;28;20031;-74
2022/11/20 04:36:01;;;;;;;1.02;0.60;;;;;;;15.46;50.30;93162.44;5086398;28;20024;-74
2022/11/20 04:38:27;;;;;;;0.50;0.50;;;;;;;15.49;50.38;93148.31;5085256;28;20067;-74
2022/11/20 04:41:05;;;;;;;1.67;0.60;;;;;;;15.12;50.50;93115.94;5085297;28;20039;-75
2022/11/20 04:43:32;;;;;;;1.08;0.60;;;;;;;15.40;50.44;93153.88;5098929;28;20024;-74
2022/11/20 04:45:59;;;;;;;1.00;0.60;;;;;;;15.26;50.59;93134.91;5086439;28;20051;-76
2022/11/20 04:48:26;;;;;;;1.70;0.80;;;;;;;15.31;50.38;93150.69;5083097;28;20024;-73
2022/11/20 04:50:51;;;;;;;1.27;0.70;;;;;;;15.11;50.78;93125.09;5084403;28;20035;-74
2022/11/20 04:53:18;;;;;;;2.42;0.70;;;;;;;15.25;50.63;93151.34;5090521;28;20028;-76
2022/11/20 04:55:43;;;;;;;3.92;0.80;;;;;;;15.18;51.17;93146.63;5084879;28;20029;-75
2022/11/20 04:58:09;;;;;;;2.08;0.75;;;;;;;15.29;50.82;93126.16;5083600;28;20549;-75
2022/11/20 05:00:34;;;;;;;1.52;0.60;;;;;;;15.35;49.90;93119.34;5083886;28;20090;-74
2022/11/20 05:03:00;;;;;;;1.83;0.60;;;;;;;15.33;50.17;93126.22;5082405;28;20044;-74
2022/11/20 05:05:25;;;;;;;0.80;0.57;;;;;;;15.31;50.27;93133.81;5082714;28;20038;-75
2022/11/20 05:07:51;;;;;;;2.60;0.80;;;;;;;15.17;50.66;93137.06;5078026;28;20028;-74
2022/11/20 05:10:16;;;;;;;4.78;0.60;;;;;;;15.23;51.05;93116.09;5079396;28;20032;-74
2022/11/20 05:12:42;;;;;;;1.50;0.60;;;;;;;15.22;50.95;93075.16;5078662;28;20052;-73
2022/11/20 05:15:07;;;;;;;1.17;0.50;;;;;;;15.22;51.03;93103.84;5081905;28;20023;-74
2022/11/20 05:17:33;;;;;;;0.50;0.50;;;;;;;15.20;51.23;93117.59;5079887;28;20033;-74
2022/11/20 05:19:58;;;;;;;1.63;0.57;;;;;;;15.12;50.95;93105.22;5081910;28;20543;-74
2022/11/20 05:22:24;;;;;;;1.45;0.80;;;;;;;14.99;51.80;93130.63;5078709;28;20029;-75
2022/11/20 05:24:49;;;;;;;0.85;0.57;;;;;;;14.75;52.02;93099.63;5079476;28;20286;-74
2022/11/20 05:27:15;;;;;;;1.60;0.60;;;;;;;14.88;52.14;93086.84;5079750;28;20031;-75
2022/11/20 05:29:40;;;;;;;4.00;0.80;;;;;;;14.76;52.02;93070.97;5079667;28;20062;-75
2022/11/20 05:32:07;;;;;;;0.95;0.70;;;;;;;14.88;51.77;93074.22;5077456;28;20040;-75
2022/11/20 05:34:32;;;;;;;0.68;0.60;;;;;;;14.99;51.80;93120.69;5081792;28;20038;-74
2022/11/20 05:36:58;;;;;;;0.68;0.63;;;;;;;15.12;51.47;93088.38;5080640;28;20033;-74
2022/11/20 05:39:23;;;;;;;2.85;0.60;;;;;;;14.83;52.06;93081.78;5082293;28;20016;-74
2022/11/20 05:42:29;;;;;;;1.70;0.60;;;;;;;14.65;52.52;93075.34;5080676;28;20017;-75
2022/11/20 05:44:34;;;;;;;1.85;0.73;;;;;;;14.73;52.14;93085.03;5082081;28;20036;-75
2022/11/20 05:46:59;;;;;;;0.75;0.68;;;;;;;14.83;51.91;93079.09;5078794;28;20110;-74
2022/11/20 05:49:25;;;;;;;3.72;0.93;;;;;;;14.78;51.99;93093.56;5081005;28;20028;-74
2022/11/20 05:51:50;;;;;;;2.28;0.77;;;;;;;14.77;51.65;93086.66;5084633;28;20041;-74
2022/11/20 05:54:16;;;;;;;3.38;0.75;;;;;;;14.56;50.99;93068.34;5079921;28;20020;-75
2022/11/20 05:56:41;;;;;;;2.38;0.60;;;;;;;14.53;50.95;93058.31;5080445;28;20385;-74
2022/11/20 05:59:07;;;;;;;4.10;1.02;;;;;;;14.82;51.56;93112.34;5082208;28;20052;-75
2022/11/20 06:01:32;;;;;;;0.68;0.57;;;;;;;14.65;52.02;93105.56;5083490;28;20157;-75
2022/11/20 06:03:58;;;;;;;1.33;0.70;;;;;;;14.54;52.16;93121.41;5082247;28;20036;-74
2022/11/20 06:06:25;;;;;;;0.50;0.50;;;;;;;14.62;51.94;93105.50;5074500;28;20089;-75
2022/11/20 06:08:50;;;;;;;2.95;0.73;;;;;;;14.69;51.78;93114.41;5081107;28;20565;-75
2022/11/20 06:11:16;;;;;;;1.42;0.63;;;;;;;14.54;51.92;93104.59;5082813;28;20036;-75
2022/11/20 06:13:42;;;;;;;1.75;0.70;;;;;;;14.62;51.91;93130.34;5080657;28;20119;-74
2022/11/20 06:16:09;;;;;;;6.13;0.75;;;;;;;14.62;51.99;93137.63;5082764;28;20047;-75
2022/11/20 06:18:34;;;;;;;2.00;0.77;;;;;;;14.50;51.79;93085.00;5080161;28;20020;-75
2022/11/20 06:21:05;;;;;;;0.60;0.60;;;;;;;14.50;51.47;93093.03;5083854;28;20043;-75
2022/11/20 06:23:32;;;;;;;1.15;0.65;;;;;;;14.70;51.21;93139.28;5076077;28;20036;-74
2022/11/20 06:26:01;;;;;;;1.20;1.05;;;;;;;14.82;51.38;93144.47;5077248;28;20036;-75
2022/11/20 06:28:27;;;;;;;2.70;1.30;;;;;;;14.96;51.29;93144.75;5078185;28;20036;-76
2022/11/20 06:30:52;;;;;;;1.02;0.50;;;;;;;15.06;51.30;93160.19;5077126;28;20051;-75
2022/11/20 06:33:17;;;;;;;1.48;0.50;;;;;;;15.19;50.38;93142.06;5078712;28;20028;-76
2022/11/20 06:35:43;;;;;;;1.90;0.60;;;;;;;15.24;50.47;93129.16;5078708;28;20500;-74
2022/11/20 06:38:08;;;;;;;0.65;0.50;;;;;;;15.35;49.76;93132.75;5080305;28;20048;-75
2022/11/20 06:40:33;;;;;;;2.03;0.73;;;;;;;15.24;49.94;93115.75;5086365;28;20502;-75
2022/11/20 06:42:59;;;;;;;2.35;0.80;;;;;;;15.27;49.98;93146.41;5082721;28;20154;-74
2022/11/20 06:45:24;;;;;;;2.28;0.60;;;;;;;15.17;48.87;93161.16;5083921;28;20490;-75
2022/11/20 06:47:50;;;;;;;2.15;0.70;;;;;;;15.14;48.63;93156.53;5083168;28;20051;-74
2022/11/20 06:50:15;;;;;;;1.95;0.70;;;;;;;15.25;48.61;93144.09;5082036;28;20094;-75
2022/11/20 06:52:40;;;;;;;1.63;0.60;;;;;;;15.23;48.93;93127.59;5086690;28;20043;-76
2022/11/20 06:55:06;;;;;;;1.55;0.70;;;;;;;15.40;48.54;93123.66;5077453;28;20044;-76
2022/11/20 06:57:35;;;;;;;1.38;0.60;;;;;;;15.54;47.96;93157.97;5084467;28;20032;-75
2022/11/20 07:00:00;;;;;;;0.45;0.40;;;;;;;15.46;48.95;93119.56;5084233;28;20054;-75
2022/11/20 07:02:26;;;;;;;1.20;0.50;;;;;;;15.76;48.12;93157.91;5085546;28;20035;-75
2022/11/20 07:04:51;;;;;;;1.80;0.80;;;;;;;15.66;48.25;93149.72;5085711;28;20047;-75
2022/11/20 07:07:17;;;;;;;2.45;0.80;;;;;;;15.88;48.28;93168.44;5086569;28;20068;-75
2022/11/20 07:09:42;;;;;;;3.33;0.50;;;;;;;15.91;48.09;93158.91;5082500;28;20492;-76
2022/11/20 07:12:08;;;;;;;0.93;0.88;;;;;;;15.85;48.68;93163.78;5083488;28;20929;-74
2022/11/20 07:14:33;;;;;;;6.88;1.55;;;;;;;15.74;48.95;93172.84;5084421;28;20029;-74
2022/11/20 07:16:58;;;;;;;3.33;0.90;;;;;;;15.55;49.22;93132.72;5077227;28;20030;-75
2022/11/20 07:19:24;;;;;;;1.35;0.70;;;;;;;15.66;48.94;93141.69;5083493;28;20047;-74
2022/11/20 07:21:49;;;;;;;1.77;0.90;;;;;;;15.80;48.54;93150.69;5077750;28;20051;-73
2022/11/20 07:24:15;;;;;;;1.73;0.80;;;;;;;15.74;48.76;93151.38;5083410;28;20032;-74
2022/11/20 07:26:40;;;;;;;1.65;0.40;;;;;;;15.78;48.18;93158.34;5086842;28;20056;-77
2022/11/20 07:29:06;;;;;;;1.35;0.70;;;;;;;15.86;48.29;93161.88;5083406;28;20052;-75
2022/11/20 07:31:31;;;;;;;1.20;0.65;;;;;;;15.83;48.12;93159.94;5085437;28;20093;-74
2022/11/20 07:33:56;;;;;;;1.50;0.50;;;;;;;15.85;48.41;93173.75;5083275;28;20469;-75
2022/11/20 07:36:25;;;;;;;3.22;0.70;;;;;;;15.75;48.35;93120.75;5080731;28;20043;-75
2022/11/20 07:38:50;;;;;;;0.82;0.73;;;;;;;15.89;47.44;93126.28;5084712;28;20090;-74
2022/11/20 07:41:16;;;;;;;4.88;0.60;;;;;;;16.15;47.35;93160.38;5079335;28;20037;-75
2022/11/20 07:43:41;;;;;;;3.28;1.00;;;;;;;16.02;47.36;93141.06;5080850;28;20071;-76
2022/11/20 07:46:06;;;;;;;2.30;0.65;;;;;;;16.15;47.35;93139.69;5084712;28;20475;-75
2022/11/20 07:48:32;;;;;;;0.57;0.57;;;;;;;16.25;47.12;93155.16;5080081;28;20033;-75
2022/11/20 07:50:57;;;;;;;2.45;0.60;;;;;;;16.26;47.21;93154.03;5081488;28;20024;-75
2022/11/20 07:53:23;;;;;;;3.22;1.77;;;;;;;16.27;46.79;93157.47;5082729;28;20154;-75
2022/11/20 07:55:50;;;;;;;3.65;1.15;;;;;;;15.91;47.36;93110.63;5081723;28;20032;-75
2022/11/20 07:58:15;;;;;;;3.40;0.60;;;;;;;16.02;47.68;93140.28;5078017;28;20151;-76
2022/11/20 08:00:41;;;;;;;2.88;1.67;;;;;;;16.23;48.00;93189.59;5083392;28;20151;-74
2022/11/20 08:03:07;;;;;;;2.95;0.85;;;;;;;16.14;47.82;93156.91;5081691;28;20687;-75
2022/11/20 08:05:33;;;;;;;1.77;1.02;;;;;;;16.13;48.23;93143.88;5082602;28;20586;-75
2022/11/20 08:07:58;;;;;;;4.80;1.23;;;;;;;16.05;48.48;93172.50;5081900;28;20064;-75
2022/11/20 08:10:24;;;;;;;2.17;0.82;;;;;;;15.75;49.25;93142.97;5082610;28;20082;-75
2022/11/20 08:15:36;;;;;;;4.70;1.00;;;;;;;15.83;48.80;93146.53;5080185;28;20051;-75
2022/11/20 08:18:07;;;;;;;5.38;1.10;;;;;;;15.97;48.76;93173.56;5080659;28;20087;-75
2022/11/20 08:20:34;;;;;;;4.80;0.77;;;;;;;15.76;48.64;93165.19;5077369;28;20684;-75
2022/11/20 08:23:01;;;;;;;6.10;1.40;;;;;;;15.72;48.77;93164.38;5083483;28;20048;-76
2022/11/20 08:25:27;;;;;;;2.28;1.25;;;;;;;15.99;49.54;93200.00;5086715;28;20060;-76
2022/11/20 08:27:53;;;;;;;5.45;1.20;;;;;;;15.57;50.40;93218.88;5084063;28;20041;-75
2022/11/20 08:30:18;;;;;;;1.80;1.40;;;;;;;15.19;51.42;93160.81;5084797;28;20039;-75
2022/11/20 08:32:43;;;;;;;2.20;0.98;;;;;;;15.39;50.10;93205.16;5083635;28;20035;-75
2022/11/20 08:35:09;;;;;;;4.70;0.63;;;;;;;15.44;50.52;93203.00;5084926;28;20028;-75
2022/11/20 08:37:34;;;;;;;6.20;0.90;;;;;;;15.43;50.19;93206.78;5082335;28;20056;-76
2022/11/20 08:40:00;;;;;;;3.97;0.70;;;;;;;15.62;49.89;93186.41;5082710;28;20082;-75
2022/11/20 08:42:25;;;;;;;6.55;1.70;;;;;;;15.68;51.45;93209.09;5079901;28;20050;-75
2022/11/20 08:44:50;;;;;;;4.97;1.20;;;;;;;15.94;52.40;93254.69;5081551;28;20051;-75
2022/11/20 08:47:16;;;;;;;4.97;1.05;;;;;;;16.11;54.24;93251.53;5081761;28;20039;-75
2022/11/20 08:49:41;;;;;;;8.80;1.60;;;;;;;16.06;55.75;93249.16;5080284;28;20539;-74
2022/11/20 08:52:06;;;;;;;0.70;0.70;;;;;;;16.14;56.13;93242.75;5080358;28;20075;-75
2022/11/20 08:54:32;;;;;;;2.47;1.25;;;;;;;15.93;57.40;93229.03;5082678;28;20066;-75
2022/11/20 08:56:57;;;;;;;2.50;1.25;;;;;;;16.27;58.24;93230.69;5083515;28;20070;-75
2022/11/20 08:59:23;;;;;;;9.00;1.58;;;;;;;16.09;57.61;93178.69;5084971;28;20781;-76
2022/11/20 09:01:48;;;;;;;3.10;1.30;;;;;;;16.53;57.07;93237.19;5081225;28;20152;-75
2022/11/20 09:04:14;;;;;;;3.65;2.38;;;;;;;16.54;58.67;93236.03;5080475;28;20105;-75
2022/11/20 09:06:40;;;;;;;7.30;1.90;;;;;;;16.52;57.26;93255.22;5079398;28;20144;-74
2022/11/20 09:09:05;;;;;;;3.10;2.65;;;;;;;16.58;56.98;93236.84;5078702;28;20032;-75
2022/11/20 09:11:31;;;;;;;5.00;2.17;;;;;;;16.71;56.04;93279.25;5077481;28;20032;-76
2022/11/20 09:13:57;;;;;;;3.95;2.28;;;;;;;16.37;58.69;93247.34;5081615;28;20100;-74
2022/11/20 09:16:22;;;;;;;4.20;1.00;;;;;;;16.47;56.41;93252.06;5084234;28;20071;-76
2022/11/20 09:18:50;;;;;;;0.63;0.60;;;;;;;16.16;54.91;93239.72;5090570;28;20064;-76
2022/11/20 09:21:15;;;;;;;1.20;0.60;;;;;;;15.29;55.15;93260.09;5084510;28;20036;-76
2022/11/20 09:23:41;;;;;;;1.38;0.60;;;;;;;15.19;56.35;93223.19;5084983;28;20032;-77
2022/11/20 09:26:11;;;;;;;2.58;0.70;;;;;;;15.25;56.96;93263.84;5084175;28;20047;-75
2022/11/20 09:28:37;;;;;;;0.82;0.73;;;;;;;15.15;57.22;93232.28;5084822;28;20071;-76
2022/11/20 09:31:19;;;;;;;0.85;0.60;;;;;;;14.93;59.43;93236.47;5084114;28;20110;-76
2022/11/20 09:33:45;;;;;;;3.25;1.30;;;;;;;14.71;60.69;93229.16;5085226;28;20052;-76
2022/11/20 09:36:10;;;;;;;4.18;0.60;;;;;;;14.90;61.69;93210.41;5084732;28;20054;-76
2022/11/20 09:38:35;;;;;;;0.77;0.60;;;;;;;15.01;62.63;93184.59;5084802;28;20119;-76
2022/11/20 09:41:06;;;;;;;2.17;0.68;;;;;;;14.85;63.92;93168.63;5091650;28;20036;-76
2022/11/20 09:44:19;;;;;;;2.95;0.90;;;;;;;15.23;64.14;93183.84;5086322;28;20029;-75
2022/11/20 09:47:01;;;;;;;0.70;0.55;;;;;;;15.19;64.59;93192.94;5080718;28;20124;-75
2022/11/20 09:50:03;;;;;;;1.10;0.77;;;;;;;15.40;60.32;93196.75;5084305;28;20117;-76
2022/11/20 09:52:47;;;;;;;1.65;0.70;;;;;;;15.54;60.70;93184.75;5085950;28;20025;-77
2022/11/20 09:55:14;;;;;;;2.53;1.35;;;;;;;15.44;61.67;93168.16;5087527;28;20131;-75
2022/11/20 09:57:44;;;;;;;1.52;1.30;;;;;;;15.69;61.62;93191.91;5096425;28;20051;-76
2022/11/20 10:00:13;;;;;;;3.63;1.38;;;;;;;15.65;61.88;93170.38;5081628;28;20038;-76
2022/11/20 10:02:58;;;;;;;3.20;2.45;;;;;;;15.91;60.55;93204.47;5082699;28;20540;-76
2022/11/20 10:05:29;;;;;;;8.73;2.53;;;;;;;15.70;56.12;93177.34;5084454;28;20573;-76
2022/11/20 10:08:08;;;;;;;7.57;2.30;;;;;;;15.54;57.50;93176.72;5086607;28;20062;-75
2022/11/20 10:10:47;;;;;;;7.22;2.10;;;;;;;15.71;57.41;93195.75;5086880;28;20562;-77
2022/11/20 10:13:42;;;;;;;5.22;2.22;;;;;;;15.75;59.61;93179.72;5086998;28;20596;-75
2022/11/20 10:16:34;;;;;;;4.05;2.55;;;;;;;15.76;56.72;93154.47;5080404;28;20044;-75
2022/11/20 10:19:35;;;;;;;3.42;1.98;;;;;;;15.93;55.63;93178.09;5082524;28;20124;-75
2022/11/20 10:22:06;;;;;;;6.30;1.90;;;;;;;16.17;56.82;93196.44;5056746;28;20052;-76
2022/11/20 10:24:38;;;;;;;6.55;2.40;;;;;;;15.90;59.51;93187.63;5085985;28;20042;-76
2022/11/20 10:27:28;;;;;;;2.60;1.90;;;;;;;16.09;60.86;93177.91;5086804;28;20497;-76
2022/11/20 10:30:00;;;;;;;8.63;2.50;;;;;;;15.21;62.11;93143.22;5083307;28;20036;-76
2022/11/20 10:32:39;;;;;;;3.35;1.55;;;;;;;15.29;64.17;93174.38;5083564;28;20100;-75
2022/11/20 10:35:14;;;;;;;5.78;1.65;;;;;;;15.57;63.51;93197.44;5087309;28;20040;-76
2022/11/20 10:37:46;;;;;;;1.90;1.20;;;;;;;15.63;63.30;93193.31;5084630;28;20567;-75
2022/11/20 10:40:30;;;;;;;4.32;1.30;;;;;;;15.59;63.80;93208.59;5085115;28;20100;-76
2022/11/20 10:43:01;;;;;;;2.72;1.85;;;;;;;15.73;64.25;93214.16;5087889;28;20570;-76
2022/11/20 10:45:27;;;;;;;5.50;1.90;;;;;;;15.76;63.96;93200.03;5087433;28;20024;-76
2022/11/20 10:48:07;;;;;;;4.38;2.17;;;;;;;15.66;64.48;93216.72;5084013;28;20497;-75
2022/11/20 10:50:36;;;;;;;4.93;2.60;;;;;;;15.59;64.90;93184.47;5093062;28;20036;-75
2022/11/20 10:53:20;;;;;;;4.88;2.70;;;;;;;15.71;65.54;93203.03;5086299;28;20492;-76
2022/11/20 10:56:02;;;;;;;3.90;2.35;;;;;;;15.70;65.35;93180.03;5101054;28;20041;-75
2022/11/20 10:58:52;;;;;;;6.63;2.22;;;;;;;16.08;65.13;93220.06;5087423;28;20104;-75
2022/11/20 11:01:23;;;;;;;3.70;2.13;;;;;;;15.73;65.86;93206.13;5080547;28;20036;-77
2022/11/20 11:03:54;;;;;;;3.95;2.17;;;;;;;16.00;65.85;93242.53;5090728;28;20064;-76
2022/11/20 11:06:37;;;;;;;5.32;2.67;;;;;;;16.10;66.02;93282.16;5095649;28;20020;-73
2022/11/20 11:09:15;;;;;;;6.80;2.47;;;;;;;15.44;67.59;93283.38;5072702;28;20063;-75
2022/11/20 11:11:40;;;;;;;4.43;2.58;;;;;;;15.08;62.51;93254.34;5068342;28;20037;-74
2022/11/20 11:14:14;;;;;;;2.10;0.90;;;;;;;15.16;59.59;93256.03;5073487;28;20047;-75
2022/11/20 11:16:57;;;;;;;0.90;0.60;;;;;;;15.02;56.17;93245.03;5076289;28;20104;-75
2022/11/20 11:19:23;;;;;;;1.70;0.80;;;;;;;14.29;57.08;93250.41;5086676;28;20045;-75
2022/11/20 11:21:54;;;;;;;2.95;0.65;;;;;;;13.75;56.57;93280.50;5090901;28;20136;-75
2022/11/20 11:24:30;;;;;;;1.80;0.65;;;;;;;13.26;59.81;93248.72;5088897;28;20046;-75
2022/11/20 11:27:10;;;;;;;1.50;0.40;;;;;;;12.88;57.80;93189.78;5095185;28;20055;-75
2022/11/20 11:29:35;;;;;;;5.10;0.70;;;;;;;12.64;61.00;93262.69;5091281;28;20032;-75
2022/11/20 11:32:11;;;;;;;0.45;0.40;;;;;;;12.56;62.62;93263.59;5094218;28;20102;-76
2022/11/20 11:34:37;;;;;;;1.77;0.50;;;;;;;12.09;61.60;93222.56;5079411;28;20032;-76
2022/11/20 11:37:03;;;;;;;0.57;0.55;;;;;;;11.63;62.52;93221.97;5076912;28;20043;-75
2022/11/20 11:39:31;;;;;;;2.05;0.50;;;;;;;11.57;64.78;93231.28;5075988;28;20029;-76
2022/11/20 11:41:58;;;;;;;1.85;0.43;;;;;;;11.38;65.45;93220.38;5076847;28;20033;-74
2022/11/20 11:47:29;;;;;;;0.70;0.60;;;;;;;11.42;65.20;93237.22;5080551;28;20055;-76
2022/11/20 11:50:10;;;;;;;2.50;0.55;;;;;;;11.34;66.11;93254.09;5085151;28;20040;-74
2022/11/20 11:52:47;;;;;;;5.20;0.70;;;;;;;11.39;66.97;93245.91;5086630;28;20106;-75